sensor_id;sensor_type;location;lat;lon;timestamp;P1;durP1;ratioP1;P2;durP2;ratioP2
68484;SDS011;55472;50.060;21.960;2023-08-06T00:00:49;31.98;;;12.55;;
68484;SDS011;55472;50.060;21.960;2023-08-06T00:03:35;29.00;;;12.93;;
68484;SDS011;55472;50.060;21.960;2023-08-06T00:06:01;30.60;;;12.52;;
68484;SDS011;55472;50.060;21.960;2023-08-06T00:08:27;31.63;;;12.25;;
68484;SDS011;55472;50.060;21.960;2023-08-06T00:10:54;28.00;;;12.10;;
68484;SDS011;55472;50.060;21.960;2023-08-06T00:13:20;26.63;;;12.10;;
68484;SDS011;55472;50.060;21.960;2023-08-06T00:15:46;31.92;;;12.98;;
68484;SDS011;55472;50.060;21.960;2023-08-06T00:18:12;30.42;;;12.38;;
68484;SDS011;55472;50.060;21.960;2023-08-06T00:20:39;25.90;;;11.65;;
68484;SDS011;55472;50.060;21.960;2023-08-06T00:23:06;25.20;;;11.63;;
68484;SDS011;55472;50.060;21.960;2023-08-06T00:25:33;28.13;;;11.75;;
68484;SDS011;55472;50.060;21.960;2023-08-06T00:27:59;26.40;;;12.00;;
68484;SDS011;55472;50.060;21.960;2023-08-06T00:30:25;24.02;;;11.25;;
68484;SDS011;55472;50.060;21.960;2023-08-06T00:32:51;24.05;;;11.57;;
68484;SDS011;55472;50.060;21.960;2023-08-06T00:35:17;30.07;;;11.83;;
68484;SDS011;55472;50.060;21.960;2023-08-06T00:37:43;25.95;;;11.60;;
68484;SDS011;55472;50.060;21.960;2023-08-06T00:40:09;21.88;;;11.02;;
68484;SDS011;55472;50.060;21.960;2023-08-06T00:42:35;26.10;;;11.13;;
68484;SDS011;55472;50.060;21.960;2023-08-06T00:45:02;25.67;;;11.80;;
68484;SDS011;55472;50.060;21.960;2023-08-06T00:47:28;25.43;;;11.00;;
68484;SDS011;55472;50.060;21.960;2023-08-06T00:49:55;22.27;;;11.05;;
68484;SDS011;55472;50.060;21.960;2023-08-06T00:52:20;27.45;;;11.80;;
68484;SDS011;55472;50.060;21.960;2023-08-06T00:54:47;25.95;;;11.05;;
68484;SDS011;55472;50.060;21.960;2023-08-06T00:57:13;27.83;;;11.93;;
68484;SDS011;55472;50.060;21.960;2023-08-06T00:59:40;25.40;;;11.47;;
68484;SDS011;55472;50.060;21.960;2023-08-06T01:02:06;25.48;;;11.30;;
68484;SDS011;55472;50.060;21.960;2023-08-06T01:04:32;28.00;;;12.13;;
68484;SDS011;55472;50.060;21.960;2023-08-06T01:15:41;29.83;;;11.32;;
68484;SDS011;55472;50.060;21.960;2023-08-06T01:18:13;29.15;;;11.85;;
68484;SDS011;55472;50.060;21.960;2023-08-06T01:20:40;28.35;;;11.85;;
68484;SDS011;55472;50.060;21.960;2023-08-06T01:23:06;26.20;;;11.70;;
68484;SDS011;55472;50.060;21.960;2023-08-06T01:25:33;26.00;;;11.80;;
68484;SDS011;55472;50.060;21.960;2023-08-06T01:28:10;26.08;;;11.88;;
68484;SDS011;55472;50.060;21.960;2023-08-06T01:31:04;26.13;;;12.18;;
68484;SDS011;55472;50.060;21.960;2023-08-06T01:33:35;25.27;;;11.50;;
68484;SDS011;55472;50.060;21.960;2023-08-06T01:36:05;24.98;;;11.98;;
68484;SDS011;55472;50.060;21.960;2023-08-06T01:38:32;26.63;;;12.00;;
68484;SDS011;55472;50.060;21.960;2023-08-06T01:40:58;25.67;;;11.88;;
68484;SDS011;55472;50.060;21.960;2023-08-06T01:43:24;24.95;;;11.95;;
68484;SDS011;55472;50.060;21.960;2023-08-06T01:45:50;26.40;;;12.40;;
68484;SDS011;55472;50.060;21.960;2023-08-06T01:48:16;29.37;;;12.83;;
68484;SDS011;55472;50.060;21.960;2023-08-06T01:50:43;29.50;;;11.80;;
68484;SDS011;55472;50.060;21.960;2023-08-06T01:53:09;25.90;;;12.32;;
68484;SDS011;55472;50.060;21.960;2023-08-06T01:55:35;31.25;;;12.13;;
68484;SDS011;55472;50.060;21.960;2023-08-06T01:58:01;31.48;;;13.10;;
68484;SDS011;55472;50.060;21.960;2023-08-06T02:00:27;29.35;;;12.02;;
68484;SDS011;55472;50.060;21.960;2023-08-06T02:02:54;28.07;;;12.53;;
68484;SDS011;55472;50.060;21.960;2023-08-06T02:05:20;29.15;;;12.05;;
68484;SDS011;55472;50.060;21.960;2023-08-06T02:07:46;34.33;;;12.80;;
68484;SDS011;55472;50.060;21.960;2023-08-06T02:10:12;29.58;;;12.73;;
68484;SDS011;55472;50.060;21.960;2023-08-06T02:12:38;31.38;;;12.95;;
68484;SDS011;55472;50.060;21.960;2023-08-06T02:15:05;29.03;;;12.50;;
68484;SDS011;55472;50.060;21.960;2023-08-06T02:17:32;29.38;;;12.10;;
68484;SDS011;55472;50.060;21.960;2023-08-06T02:19:58;31.92;;;13.05;;
68484;SDS011;55472;50.060;21.960;2023-08-06T02:22:24;29.77;;;13.30;;
68484;SDS011;55472;50.060;21.960;2023-08-06T02:24:51;31.27;;;13.23;;
68484;SDS011;55472;50.060;21.960;2023-08-06T02:27:17;38.55;;;13.45;;
68484;SDS011;55472;50.060;21.960;2023-08-06T02:29:43;31.80;;;13.73;;
68484;SDS011;55472;50.060;21.960;2023-08-06T02:32:10;34.30;;;13.90;;
68484;SDS011;55472;50.060;21.960;2023-08-06T02:34:36;35.45;;;13.98;;
68484;SDS011;55472;50.060;21.960;2023-08-06T02:37:02;38.10;;;14.40;;
68484;SDS011;55472;50.060;21.960;2023-08-06T02:39:28;38.42;;;13.95;;
68484;SDS011;55472;50.060;21.960;2023-08-06T02:41:55;40.13;;;14.23;;
68484;SDS011;55472;50.060;21.960;2023-08-06T02:44:21;36.78;;;14.00;;
68484;SDS011;55472;50.060;21.960;2023-08-06T02:46:47;35.75;;;14.35;;
68484;SDS011;55472;50.060;21.960;2023-08-06T02:49:13;37.57;;;15.80;;
68484;SDS011;55472;50.060;21.960;2023-08-06T02:51:39;39.53;;;15.02;;
68484;SDS011;55472;50.060;21.960;2023-08-06T02:54:05;44.13;;;15.50;;
68484;SDS011;55472;50.060;21.960;2023-08-06T02:56:31;45.35;;;14.88;;
68484;SDS011;55472;50.060;21.960;2023-08-06T02:58:57;35.67;;;14.37;;
68484;SDS011;55472;50.060;21.960;2023-08-06T03:01:23;38.45;;;14.43;;
68484;SDS011;55472;50.060;21.960;2023-08-06T03:03:52;34.97;;;14.98;;
68484;SDS011;55472;50.060;21.960;2023-08-06T03:06:18;37.25;;;15.10;;
68484;SDS011;55472;50.060;21.960;2023-08-06T03:08:44;43.83;;;15.93;;
68484;SDS011;55472;50.060;21.960;2023-08-06T03:11:10;40.33;;;15.67;;
68484;SDS011;55472;50.060;21.960;2023-08-06T03:13:36;40.58;;;15.52;;
68484;SDS011;55472;50.060;21.960;2023-08-06T03:16:03;46.45;;;16.20;;
68484;SDS011;55472;50.060;21.960;2023-08-06T03:18:29;41.88;;;15.90;;
68484;SDS011;55472;50.060;21.960;2023-08-06T03:20:55;40.60;;;15.50;;
68484;SDS011;55472;50.060;21.960;2023-08-06T03:23:22;44.53;;;15.10;;
68484;SDS011;55472;50.060;21.960;2023-08-06T03:25:48;44.92;;;15.93;;
68484;SDS011;55472;50.060;21.960;2023-08-06T03:28:14;41.72;;;14.57;;
68484;SDS011;55472;50.060;21.960;2023-08-06T03:30:40;40.53;;;15.25;;
68484;SDS011;55472;50.060;21.960;2023-08-06T03:33:06;34.10;;;14.18;;
68484;SDS011;55472;50.060;21.960;2023-08-06T03:35:33;35.03;;;14.47;;
68484;SDS011;55472;50.060;21.960;2023-08-06T03:37:59;36.13;;;14.40;;
68484;SDS011;55472;50.060;21.960;2023-08-06T03:40:25;34.92;;;14.32;;
68484;SDS011;55472;50.060;21.960;2023-08-06T03:42:51;35.22;;;14.07;;
68484;SDS011;55472;50.060;21.960;2023-08-06T03:45:18;36.40;;;15.25;;
68484;SDS011;55472;50.060;21.960;2023-08-06T03:47:44;37.83;;;14.57;;
68484;SDS011;55472;50.060;21.960;2023-08-06T03:50:10;34.63;;;15.27;;
68484;SDS011;55472;50.060;21.960;2023-08-06T03:52:36;38.65;;;15.18;;
68484;SDS011;55472;50.060;21.960;2023-08-06T03:55:02;38.72;;;15.00;;
68484;SDS011;55472;50.060;21.960;2023-08-06T03:57:29;34.70;;;15.23;;
68484;SDS011;55472;50.060;21.960;2023-08-06T03:59:55;33.57;;;14.53;;
68484;SDS011;55472;50.060;21.960;2023-08-06T04:02:21;34.45;;;14.13;;
68484;SDS011;55472;50.060;21.960;2023-08-06T04:04:48;30.90;;;14.10;;
68484;SDS011;55472;50.060;21.960;2023-08-06T04:07:14;36.80;;;14.38;;
68484;SDS011;55472;50.060;21.960;2023-08-06T04:09:53;27.40;;;12.52;;
68484;SDS011;55472;50.060;21.960;2023-08-06T04:12:21;29.70;;;13.10;;
68484;SDS011;55472;50.060;21.960;2023-08-06T04:14:48;27.23;;;12.25;;
68484;SDS011;55472;50.060;21.960;2023-08-06T04:17:16;26.00;;;12.27;;
68484;SDS011;55472;50.060;21.960;2023-08-06T04:19:42;25.50;;;12.68;;
68484;SDS011;55472;50.060;21.960;2023-08-06T04:22:08;27.38;;;12.88;;
68484;SDS011;55472;50.060;21.960;2023-08-06T04:24:34;24.00;;;12.00;;
68484;SDS011;55472;50.060;21.960;2023-08-06T04:27:00;26.48;;;12.95;;
68484;SDS011;55472;50.060;21.960;2023-08-06T04:29:27;26.17;;;12.70;;
68484;SDS011;55472;50.060;21.960;2023-08-06T04:31:53;29.83;;;13.15;;
68484;SDS011;55472;50.060;21.960;2023-08-06T04:34:19;31.30;;;13.55;;
68484;SDS011;55472;50.060;21.960;2023-08-06T04:36:45;29.33;;;13.23;;
68484;SDS011;55472;50.060;21.960;2023-08-06T04:39:11;25.35;;;12.75;;
68484;SDS011;55472;50.060;21.960;2023-08-06T04:41:37;25.73;;;13.40;;
68484;SDS011;55472;50.060;21.960;2023-08-06T04:44:03;30.58;;;13.20;;
68484;SDS011;55472;50.060;21.960;2023-08-06T04:46:29;27.30;;;13.65;;
68484;SDS011;55472;50.060;21.960;2023-08-06T04:48:55;26.73;;;13.33;;
68484;SDS011;55472;50.060;21.960;2023-08-06T04:51:21;28.15;;;14.25;;
68484;SDS011;55472;50.060;21.960;2023-08-06T04:53:48;27.13;;;13.18;;
68484;SDS011;55472;50.060;21.960;2023-08-06T04:56:14;29.63;;;14.63;;
68484;SDS011;55472;50.060;21.960;2023-08-06T04:58:40;29.52;;;13.90;;
68484;SDS011;55472;50.060;21.960;2023-08-06T05:01:06;29.03;;;14.80;;
68484;SDS011;55472;50.060;21.960;2023-08-06T05:03:33;27.35;;;14.55;;
68484;SDS011;55472;50.060;21.960;2023-08-06T05:05:59;29.50;;;14.27;;
68484;SDS011;55472;50.060;21.960;2023-08-06T05:08:25;28.10;;;14.70;;
68484;SDS011;55472;50.060;21.960;2023-08-06T05:10:51;31.35;;;14.63;;
68484;SDS011;55472;50.060;21.960;2023-08-06T05:13:17;28.30;;;15.10;;
68484;SDS011;55472;50.060;21.960;2023-08-06T05:15:43;28.55;;;15.05;;
68484;SDS011;55472;50.060;21.960;2023-08-06T05:18:11;29.25;;;15.13;;
68484;SDS011;55472;50.060;21.960;2023-08-06T05:20:41;27.30;;;14.40;;
68484;SDS011;55472;50.060;21.960;2023-08-06T05:23:08;25.45;;;14.57;;
68484;SDS011;55472;50.060;21.960;2023-08-06T05:25:34;25.57;;;14.20;;
68484;SDS011;55472;50.060;21.960;2023-08-06T05:28:01;24.95;;;13.77;;
68484;SDS011;55472;50.060;21.960;2023-08-06T05:30:28;22.90;;;13.10;;
68484;SDS011;55472;50.060;21.960;2023-08-06T05:32:55;22.42;;;13.77;;
68484;SDS011;55472;50.060;21.960;2023-08-06T05:35:21;21.63;;;13.55;;
68484;SDS011;55472;50.060;21.960;2023-08-06T05:37:48;22.00;;;12.37;;
68484;SDS011;55472;50.060;21.960;2023-08-06T05:40:16;22.40;;;12.85;;
68484;SDS011;55472;50.060;21.960;2023-08-06T05:42:42;20.30;;;12.20;;
68484;SDS011;55472;50.060;21.960;2023-08-06T05:45:09;18.73;;;11.48;;
68484;SDS011;55472;50.060;21.960;2023-08-06T05:47:35;18.00;;;10.05;;
68484;SDS011;55472;50.060;21.960;2023-08-06T05:50:01;15.43;;;9.67;;
68484;SDS011;55472;50.060;21.960;2023-08-06T05:52:28;15.85;;;10.30;;
68484;SDS011;55472;50.060;21.960;2023-08-06T05:54:54;16.85;;;10.43;;
68484;SDS011;55472;50.060;21.960;2023-08-06T05:57:21;15.73;;;9.82;;
68484;SDS011;55472;50.060;21.960;2023-08-06T05:59:47;17.42;;;9.88;;
68484;SDS011;55472;50.060;21.960;2023-08-06T06:02:13;16.77;;;9.73;;
68484;SDS011;55472;50.060;21.960;2023-08-06T06:04:40;15.60;;;9.80;;
68484;SDS011;55472;50.060;21.960;2023-08-06T06:07:06;16.05;;;10.27;;
68484;SDS011;55472;50.060;21.960;2023-08-06T06:09:32;14.85;;;9.90;;
68484;SDS011;55472;50.060;21.960;2023-08-06T06:11:58;15.40;;;9.47;;
68484;SDS011;55472;50.060;21.960;2023-08-06T06:14:24;15.23;;;9.82;;
68484;SDS011;55472;50.060;21.960;2023-08-06T06:16:50;16.27;;;9.60;;
68484;SDS011;55472;50.060;21.960;2023-08-06T06:19:18;15.82;;;9.27;;
68484;SDS011;55472;50.060;21.960;2023-08-06T06:21:44;15.45;;;10.02;;
68484;SDS011;55472;50.060;21.960;2023-08-06T06:24:10;13.80;;;9.10;;
68484;SDS011;55472;50.060;21.960;2023-08-06T06:26:36;14.80;;;9.80;;
68484;SDS011;55472;50.060;21.960;2023-08-06T06:29:03;16.30;;;9.32;;
68484;SDS011;55472;50.060;21.960;2023-08-06T06:31:29;13.75;;;9.02;;
68484;SDS011;55472;50.060;21.960;2023-08-06T06:33:55;12.38;;;8.30;;
68484;SDS011;55472;50.060;21.960;2023-08-06T06:36:21;14.07;;;7.77;;
68484;SDS011;55472;50.060;21.960;2023-08-06T06:38:49;11.20;;;7.63;;
68484;SDS011;55472;50.060;21.960;2023-08-06T06:41:15;11.55;;;7.22;;
68484;SDS011;55472;50.060;21.960;2023-08-06T06:43:41;16.15;;;7.40;;
68484;SDS011;55472;50.060;21.960;2023-08-06T06:46:07;12.15;;;7.10;;
68484;SDS011;55472;50.060;21.960;2023-08-06T06:48:33;10.50;;;6.17;;
68484;SDS011;55472;50.060;21.960;2023-08-06T06:50:59;10.63;;;5.60;;
68484;SDS011;55472;50.060;21.960;2023-08-06T06:53:26;8.43;;;5.60;;
68484;SDS011;55472;50.060;21.960;2023-08-06T06:55:55;10.50;;;5.55;;
68484;SDS011;55472;50.060;21.960;2023-08-06T06:58:27;9.60;;;5.22;;
68484;SDS011;55472;50.060;21.960;2023-08-06T07:00:53;10.03;;;5.63;;
68484;SDS011;55472;50.060;21.960;2023-08-06T07:03:20;8.45;;;5.32;;
68484;SDS011;55472;50.060;21.960;2023-08-06T07:05:46;11.18;;;5.30;;
68484;SDS011;55472;50.060;21.960;2023-08-06T07:08:12;7.28;;;5.25;;
68484;SDS011;55472;50.060;21.960;2023-08-06T07:10:40;7.70;;;4.95;;
68484;SDS011;55472;50.060;21.960;2023-08-06T07:13:07;9.33;;;5.23;;
68484;SDS011;55472;50.060;21.960;2023-08-06T07:15:34;8.27;;;5.50;;
68484;SDS011;55472;50.060;21.960;2023-08-06T07:18:01;8.40;;;5.30;;
68484;SDS011;55472;50.060;21.960;2023-08-06T07:20:27;9.10;;;5.25;;
68484;SDS011;55472;50.060;21.960;2023-08-06T07:22:57;7.53;;;5.32;;
68484;SDS011;55472;50.060;21.960;2023-08-06T07:25:24;9.60;;;5.80;;
68484;SDS011;55472;50.060;21.960;2023-08-06T07:27:51;8.32;;;5.93;;
68484;SDS011;55472;50.060;21.960;2023-08-06T07:30:18;6.85;;;5.03;;
68484;SDS011;55472;50.060;21.960;2023-08-06T07:32:44;8.05;;;5.07;;
68484;SDS011;55472;50.060;21.960;2023-08-06T07:35:10;8.88;;;5.40;;
68484;SDS011;55472;50.060;21.960;2023-08-06T07:37:40;9.00;;;5.47;;
68484;SDS011;55472;50.060;21.960;2023-08-06T07:40:09;9.75;;;5.70;;
68484;SDS011;55472;50.060;21.960;2023-08-06T07:42:36;8.90;;;5.07;;
68484;SDS011;55472;50.060;21.960;2023-08-06T07:45:02;10.25;;;5.75;;
68484;SDS011;55472;50.060;21.960;2023-08-06T07:47:29;8.32;;;5.72;;
68484;SDS011;55472;50.060;21.960;2023-08-06T07:49:55;9.90;;;5.13;;
68484;SDS011;55472;50.060;21.960;2023-08-06T07:52:21;9.27;;;5.47;;
68484;SDS011;55472;50.060;21.960;2023-08-06T07:54:47;10.02;;;5.28;;
68484;SDS011;55472;50.060;21.960;2023-08-06T07:57:14;7.55;;;4.82;;
68484;SDS011;55472;50.060;21.960;2023-08-06T07:59:40;7.30;;;4.95;;
68484;SDS011;55472;50.060;21.960;2023-08-06T08:02:07;8.50;;;4.90;;
68484;SDS011;55472;50.060;21.960;2023-08-06T08:04:33;8.27;;;4.93;;
68484;SDS011;55472;50.060;21.960;2023-08-06T08:06:59;9.27;;;5.28;;
68484;SDS011;55472;50.060;21.960;2023-08-06T08:09:25;8.02;;;4.80;;
68484;SDS011;55472;50.060;21.960;2023-08-06T08:11:52;6.80;;;4.20;;
68484;SDS011;55472;50.060;21.960;2023-08-06T08:14:18;6.63;;;4.22;;
68484;SDS011;55472;50.060;21.960;2023-08-06T08:16:44;6.88;;;4.18;;
68484;SDS011;55472;50.060;21.960;2023-08-06T08:19:10;8.98;;;3.90;;
68484;SDS011;55472;50.060;21.960;2023-08-06T08:21:36;5.78;;;3.85;;
68484;SDS011;55472;50.060;21.960;2023-08-06T08:24:03;6.40;;;4.23;;
68484;SDS011;55472;50.060;21.960;2023-08-06T08:26:30;8.48;;;4.63;;
68484;SDS011;55472;50.060;21.960;2023-08-06T08:28:57;7.15;;;4.78;;
68484;SDS011;55472;50.060;21.960;2023-08-06T08:31:23;7.00;;;4.35;;
68484;SDS011;55472;50.060;21.960;2023-08-06T08:33:49;7.60;;;4.05;;
68484;SDS011;55472;50.060;21.960;2023-08-06T08:36:15;6.47;;;4.27;;
68484;SDS011;55472;50.060;21.960;2023-08-06T08:38:41;7.60;;;4.25;;
68484;SDS011;55472;50.060;21.960;2023-08-06T08:41:09;11.05;;;4.70;;
68484;SDS011;55472;50.060;21.960;2023-08-06T08:43:36;7.97;;;4.32;;
68484;SDS011;55472;50.060;21.960;2023-08-06T08:46:03;7.32;;;4.88;;
68484;SDS011;55472;50.060;21.960;2023-08-06T08:48:31;6.67;;;4.80;;
68484;SDS011;55472;50.060;21.960;2023-08-06T08:50:57;7.00;;;4.70;;
68484;SDS011;55472;50.060;21.960;2023-08-06T08:53:24;6.63;;;4.57;;
68484;SDS011;55472;50.060;21.960;2023-08-06T08:55:52;6.45;;;4.60;;
68484;SDS011;55472;50.060;21.960;2023-08-06T08:58:19;6.88;;;4.50;;
68484;SDS011;55472;50.060;21.960;2023-08-06T09:00:46;8.83;;;4.30;;
68484;SDS011;55472;50.060;21.960;2023-08-06T09:03:15;6.13;;;4.03;;
68484;SDS011;55472;50.060;21.960;2023-08-06T09:05:44;6.93;;;4.45;;
68484;SDS011;55472;50.060;21.960;2023-08-06T09:08:15;7.15;;;4.38;;
68484;SDS011;55472;50.060;21.960;2023-08-06T09:10:44;6.22;;;4.47;;
68484;SDS011;55472;50.060;21.960;2023-08-06T09:13:17;7.47;;;4.77;;
68484;SDS011;55472;50.060;21.960;2023-08-06T09:15:46;6.78;;;4.70;;
68484;SDS011;55472;50.060;21.960;2023-08-06T09:18:13;7.95;;;4.38;;
68484;SDS011;55472;50.060;21.960;2023-08-06T09:20:39;9.00;;;4.50;;
68484;SDS011;55472;50.060;21.960;2023-08-06T09:23:08;7.07;;;4.40;;
68484;SDS011;55472;50.060;21.960;2023-08-06T09:25:39;6.38;;;4.15;;
68484;SDS011;55472;50.060;21.960;2023-08-06T09:28:06;7.25;;;3.85;;
68484;SDS011;55472;50.060;21.960;2023-08-06T09:30:33;7.10;;;3.55;;
68484;SDS011;55472;50.060;21.960;2023-08-06T09:33:01;4.60;;;2.72;;
68484;SDS011;55472;50.060;21.960;2023-08-06T09:35:31;5.33;;;2.40;;
68484;SDS011;55472;50.060;21.960;2023-08-06T09:38:07;5.82;;;2.70;;
68484;SDS011;55472;50.060;21.960;2023-08-06T09:40:36;4.18;;;2.30;;
68484;SDS011;55472;50.060;21.960;2023-08-06T09:43:03;4.00;;;2.25;;
68484;SDS011;55472;50.060;21.960;2023-08-06T09:45:31;3.90;;;2.17;;
68484;SDS011;55472;50.060;21.960;2023-08-06T09:47:58;3.70;;;2.20;;
68484;SDS011;55472;50.060;21.960;2023-08-06T09:50:28;5.22;;;2.25;;
68484;SDS011;55472;50.060;21.960;2023-08-06T09:53:00;4.95;;;1.95;;
68484;SDS011;55472;50.060;21.960;2023-08-06T09:55:28;3.38;;;1.85;;
68484;SDS011;55472;50.060;21.960;2023-08-06T09:57:54;3.85;;;2.10;;
68484;SDS011;55472;50.060;21.960;2023-08-06T10:00:22;4.70;;;2.23;;
68484;SDS011;55472;50.060;21.960;2023-08-06T10:02:48;3.88;;;2.25;;
68484;SDS011;55472;50.060;21.960;2023-08-06T10:05:19;4.25;;;2.38;;
68484;SDS011;55472;50.060;21.960;2023-08-06T10:07:45;6.00;;;2.38;;
68484;SDS011;55472;50.060;21.960;2023-08-06T10:10:12;4.50;;;2.22;;
68484;SDS011;55472;50.060;21.960;2023-08-06T10:12:51;4.10;;;2.20;;
68484;SDS011;55472;50.060;21.960;2023-08-06T10:15:22;7.43;;;1.98;;
68484;SDS011;55472;50.060;21.960;2023-08-06T10:17:52;4.35;;;1.50;;
68484;SDS011;55472;50.060;21.960;2023-08-06T10:20:22;3.80;;;1.92;;
68484;SDS011;55472;50.060;21.960;2023-08-06T10:23:01;6.43;;;1.75;;
68484;SDS011;55472;50.060;21.960;2023-08-06T10:25:33;3.57;;;1.60;;
68484;SDS011;55472;50.060;21.960;2023-08-06T10:28:01;4.03;;;1.55;;
68484;SDS011;55472;50.060;21.960;2023-08-06T10:30:41;3.97;;;1.70;;
68484;SDS011;55472;50.060;21.960;2023-08-06T10:33:09;4.18;;;1.90;;
68484;SDS011;55472;50.060;21.960;2023-08-06T10:35:36;4.63;;;1.50;;
68484;SDS011;55472;50.060;21.960;2023-08-06T10:38:10;2.93;;;1.30;;
68484;SDS011;55472;50.060;21.960;2023-08-06T10:40:40;4.00;;;2.15;;
68484;SDS011;55472;50.060;21.960;2023-08-06T10:43:27;4.45;;;1.70;;
68484;SDS011;55472;50.060;21.960;2023-08-06T10:45:57;3.58;;;1.50;;
68484;SDS011;55472;50.060;21.960;2023-08-06T10:48:41;4.20;;;1.40;;
68484;SDS011;55472;50.060;21.960;2023-08-06T10:51:11;3.47;;;1.33;;
68484;SDS011;55472;50.060;21.960;2023-08-06T10:53:44;2.47;;;1.08;;
68484;SDS011;55472;50.060;21.960;2023-08-06T10:56:13;3.15;;;1.30;;
68484;SDS011;55472;50.060;21.960;2023-08-06T10:58:41;3.40;;;1.23;;
68484;SDS011;55472;50.060;21.960;2023-08-06T11:01:08;3.05;;;1.30;;
68484;SDS011;55472;50.060;21.960;2023-08-06T11:03:35;4.17;;;1.27;;
68484;SDS011;55472;50.060;21.960;2023-08-06T11:06:03;2.70;;;1.30;;
68484;SDS011;55472;50.060;21.960;2023-08-06T11:08:40;3.45;;;1.45;;
68484;SDS011;55472;50.060;21.960;2023-08-06T11:11:14;2.80;;;1.38;;
68484;SDS011;55472;50.060;21.960;2023-08-06T11:13:42;2.95;;;1.30;;
68484;SDS011;55472;50.060;21.960;2023-08-06T11:16:17;3.20;;;1.60;;
68484;SDS011;55472;50.060;21.960;2023-08-06T11:18:45;3.10;;;1.40;;
68484;SDS011;55472;50.060;21.960;2023-08-06T11:21:13;3.92;;;1.55;;
68484;SDS011;55472;50.060;21.960;2023-08-06T11:23:40;2.97;;;1.40;;
68484;SDS011;55472;50.060;21.960;2023-08-06T11:26:07;4.13;;;1.50;;
68484;SDS011;55472;50.060;21.960;2023-08-06T11:28:33;2.70;;;1.30;;
68484;SDS011;55472;50.060;21.960;2023-08-06T11:30:59;4.32;;;1.25;;
68484;SDS011;55472;50.060;21.960;2023-08-06T11:33:27;2.90;;;1.30;;
68484;SDS011;55472;50.060;21.960;2023-08-06T11:35:55;3.03;;;1.10;;
68484;SDS011;55472;50.060;21.960;2023-08-06T11:38:24;2.60;;;1.10;;
68484;SDS011;55472;50.060;21.960;2023-08-06T11:40:52;2.30;;;1.00;;
68484;SDS011;55472;50.060;21.960;2023-08-06T11:43:19;3.60;;;1.00;;
68484;SDS011;55472;50.060;21.960;2023-08-06T11:45:48;2.40;;;0.90;;
68484;SDS011;55472;50.060;21.960;2023-08-06T11:48:16;3.60;;;0.70;;
68484;SDS011;55472;50.060;21.960;2023-08-06T11:50:43;2.10;;;0.80;;
68484;SDS011;55472;50.060;21.960;2023-08-06T11:53:11;2.87;;;1.00;;
68484;SDS011;55472;50.060;21.960;2023-08-06T11:55:40;3.35;;;1.00;;
68484;SDS011;55472;50.060;21.960;2023-08-06T11:58:06;5.25;;;0.80;;
68484;SDS011;55472;50.060;21.960;2023-08-06T12:00:32;1.90;;;0.70;;
68484;SDS011;55472;50.060;21.960;2023-08-06T12:02:59;2.45;;;0.80;;
68484;SDS011;55472;50.060;21.960;2023-08-06T12:05:29;1.90;;;0.70;;
68484;SDS011;55472;50.060;21.960;2023-08-06T12:07:58;4.00;;;0.90;;
68484;SDS011;55472;50.060;21.960;2023-08-06T12:10:27;1.63;;;0.60;;
68484;SDS011;55472;50.060;21.960;2023-08-06T12:12:55;3.00;;;0.90;;
68484;SDS011;55472;50.060;21.960;2023-08-06T12:15:22;3.95;;;0.70;;
68484;SDS011;55472;50.060;21.960;2023-08-06T12:17:49;5.50;;;0.80;;
68484;SDS011;55472;50.060;21.960;2023-08-06T12:20:15;2.60;;;0.70;;
68484;SDS011;55472;50.060;21.960;2023-08-06T12:22:42;2.53;;;0.90;;
68484;SDS011;55472;50.060;21.960;2023-08-06T12:25:09;3.55;;;0.70;;
68484;SDS011;55472;50.060;21.960;2023-08-06T12:27:37;2.00;;;0.70;;
68484;SDS011;55472;50.060;21.960;2023-08-06T12:30:05;2.23;;;0.90;;
68484;SDS011;55472;50.060;21.960;2023-08-06T12:32:32;2.95;;;0.73;;
68484;SDS011;55472;50.060;21.960;2023-08-06T12:34:59;2.00;;;0.70;;
68484;SDS011;55472;50.060;21.960;2023-08-06T12:37:27;2.05;;;0.60;;
68484;SDS011;55472;50.060;21.960;2023-08-06T12:39:54;2.22;;;0.80;;
68484;SDS011;55472;50.060;21.960;2023-08-06T12:42:20;3.83;;;0.80;;
68484;SDS011;55472;50.060;21.960;2023-08-06T12:44:49;3.42;;;0.90;;
68484;SDS011;55472;50.060;21.960;2023-08-06T12:47:16;4.82;;;0.90;;
68484;SDS011;55472;50.060;21.960;2023-08-06T12:49:43;2.95;;;0.60;;
68484;SDS011;55472;50.060;21.960;2023-08-06T12:52:09;2.67;;;0.70;;
68484;SDS011;55472;50.060;21.960;2023-08-06T12:54:38;2.70;;;0.80;;
68484;SDS011;55472;50.060;21.960;2023-08-06T12:57:04;3.55;;;0.80;;
68484;SDS011;55472;50.060;21.960;2023-08-06T12:59:31;2.08;;;0.73;;
68484;SDS011;55472;50.060;21.960;2023-08-06T13:01:58;2.78;;;0.70;;
68484;SDS011;55472;50.060;21.960;2023-08-06T13:04:25;2.47;;;0.90;;
68484;SDS011;55472;50.060;21.960;2023-08-06T13:06:52;2.27;;;0.80;;
68484;SDS011;55472;50.060;21.960;2023-08-06T13:09:19;3.58;;;0.90;;
68484;SDS011;55472;50.060;21.960;2023-08-06T13:11:45;4.43;;;0.73;;
68484;SDS011;55472;50.060;21.960;2023-08-06T13:14:12;3.95;;;1.02;;
68484;SDS011;55472;50.060;21.960;2023-08-06T13:16:40;2.63;;;1.03;;
68484;SDS011;55472;50.060;21.960;2023-08-06T13:19:08;3.33;;;0.70;;
68484;SDS011;55472;50.060;21.960;2023-08-06T13:21:57;4.22;;;0.95;;
68484;SDS011;55472;50.060;21.960;2023-08-06T13:24:30;2.30;;;0.70;;
68484;SDS011;55472;50.060;21.960;2023-08-06T13:26:56;3.00;;;1.20;;
68484;SDS011;55472;50.060;21.960;2023-08-06T13:29:23;1.73;;;0.60;;
68484;SDS011;55472;50.060;21.960;2023-08-06T13:31:50;1.80;;;0.75;;
68484;SDS011;55472;50.060;21.960;2023-08-06T13:34:16;4.72;;;0.80;;
68484;SDS011;55472;50.060;21.960;2023-08-06T13:36:42;2.13;;;0.70;;
68484;SDS011;55472;50.060;21.960;2023-08-06T13:39:09;1.80;;;0.70;;
68484;SDS011;55472;50.060;21.960;2023-08-06T13:41:36;2.33;;;0.87;;
68484;SDS011;55472;50.060;21.960;2023-08-06T13:44:04;1.80;;;0.70;;
68484;SDS011;55472;50.060;21.960;2023-08-06T13:46:30;2.40;;;0.90;;
68484;SDS011;55472;50.060;21.960;2023-08-06T13:48:57;2.92;;;0.90;;
68484;SDS011;55472;50.060;21.960;2023-08-06T13:51:23;2.85;;;0.80;;
68484;SDS011;55472;50.060;21.960;2023-08-06T13:53:49;3.03;;;0.90;;
68484;SDS011;55472;50.060;21.960;2023-08-06T13:56:17;2.10;;;0.80;;
68484;SDS011;55472;50.060;21.960;2023-08-06T13:58:43;2.53;;;0.75;;
68484;SDS011;55472;50.060;21.960;2023-08-06T14:01:10;3.13;;;0.85;;
68484;SDS011;55472;50.060;21.960;2023-08-06T14:03:37;2.88;;;0.80;;
68484;SDS011;55472;50.060;21.960;2023-08-06T14:06:03;2.30;;;0.80;;
68484;SDS011;55472;50.060;21.960;2023-08-06T14:08:29;2.60;;;0.82;;
68484;SDS011;55472;50.060;21.960;2023-08-06T14:10:55;2.10;;;0.70;;
68484;SDS011;55472;50.060;21.960;2023-08-06T14:13:21;3.63;;;1.80;;
68484;SDS011;55472;50.060;21.960;2023-08-06T14:15:48;3.40;;;1.10;;
68484;SDS011;55472;50.060;21.960;2023-08-06T14:18:14;3.57;;;0.80;;
68484;SDS011;55472;50.060;21.960;2023-08-06T14:20:41;2.95;;;0.80;;
68484;SDS011;55472;50.060;21.960;2023-08-06T14:23:08;2.83;;;0.73;;
68484;SDS011;55472;50.060;21.960;2023-08-06T14:25:34;2.15;;;0.80;;
68484;SDS011;55472;50.060;21.960;2023-08-06T14:28:01;3.85;;;1.00;;
68484;SDS011;55472;50.060;21.960;2023-08-06T14:30:27;3.80;;;1.00;;
68484;SDS011;55472;50.060;21.960;2023-08-06T14:32:54;2.10;;;0.80;;